Main page
METAR-TAF:

METAR-TAF

Airports :

Venice, Italy

Venice Marco Polo Airport

latitude: 45-30N, longitude: 012-20E, elevation: 2 m

Current weather observation

The report was made 17 minutes ago, at 19:20 UTC
Wind 5 kt from the South
Temperature 23°C
Humidity 65%
Pressure 1017 hPa
Visibility 10 km or more
no clouds below 1500 m and no cumulonimbus

METAR: LIPZ 231920Z 17005KT CAVOK 23/16 Q1017 NOSIG

Time: 21:37 (19:37 UTC)

Forecast

The report was made 2 hours and 37 minutes ago, at 17:00 UTC
Forecast valid from 23 at 18 UTC to 24 at 24 UTC
Wind 10 kt from the South/Southeast
Visibility 10 km or more
Few clouds at a height of 3000 ft
Becoming
from 23 at 18 UTC to 23 at 20 UTC
Wind 5 kt from variable directions
Becoming
from 24 at 10 UTC to 24 at 12 UTC
Wind 10 kt from the South/Southeast
Becoming
from 24 at 18 UTC to 24 at 20 UTC
Wind 5 kt from variable directions

TAF: LIPZ 231700Z 2318/2424 15010KT 9999 FEW030 BECMG 2318/2320 VRB05KT BECMG 2410/2412 16010KT BECMG 2418/2420 VRB05KT

Weather observations and forecasts of more than 4000 airports (METAR and TAF reports).

The available stations are represented by yellow and red dots on the map.

Hover mouse over dot to see the name of the station.

Then click to see weather observations and forecasts.

To change the map : click on the green buttons with a black cross to zoom in, on the green button with a dash to zoom out, or on the green arrows for adjacent maps.


METAR-TAF: